Springside, United Kingdom
Current Conditions -  °F | °C
As of 7:20 AM on Saturday 25 Oct 2014 (Local Time) from EGPK Reporting Station
Light Rain Light Rain  
Wind Chill: 10°   Ceiling: Unl
Heat Index: 10°   Visibility: 6mi
Dew Point:   Wind: 17mph
Humidity: 87%   Direction: 190°S
Pressure: 29.68"   Gusts: NA
Location:  55.62°N, 4.6°W
Report Text: EGPK 250620Z 19015KT 9999 -RA SCT022 SCT027 10/08 Q1005
Loading
Personal Weather Stations






























Interactive Weather Map
Tropical Storm Tracking
New forecast layout! Learn more

10-Day Weather Forecast

Advertisements
Track Severe Weather on mobile